createdAt,value
2019-05-19T00:01:26.674Z,69.60
2019-05-19T00:03:29.923Z,69.80
2019-05-19T00:05:33.257Z,69.90
2019-05-19T00:07:36.512Z,69.70
2019-05-19T00:09:39.833Z,69.70
2019-05-19T00:11:43.101Z,69.70
2019-05-19T00:13:46.565Z,69.60
2019-05-19T00:15:49.845Z,69.60
2019-05-19T00:17:53.119Z,69.50
2019-05-19T00:19:56.363Z,69.60
2019-05-19T00:21:59.637Z,70.40
2019-05-19T00:24:02.923Z,69.80
2019-05-19T00:26:06.185Z,69.80
2019-05-19T00:28:09.435Z,70.00
2019-05-19T00:30:12.690Z,70.10
2019-05-19T00:32:15.955Z,70.10
2019-05-19T00:34:19.354Z,69.70
2019-05-19T00:36:22.625Z,69.80
2019-05-19T00:38:25.859Z,70.00
2019-05-19T00:40:29.165Z,70.00
2019-05-19T00:42:32.458Z,69.90
2019-05-19T00:44:35.766Z,70.00
2019-05-19T00:46:39.064Z,69.90
2019-05-19T00:48:42.346Z,70.00
2019-05-19T00:50:45.598Z,70.00
2019-05-19T00:52:48.848Z,70.10
2019-05-19T00:54:52.092Z,70.20
2019-05-19T00:56:55.387Z,70.10
2019-05-19T00:58:58.625Z,70.30
2019-05-19T01:01:01.943Z,70.10
2019-05-19T01:03:05.191Z,70.10
2019-05-19T01:05:08.505Z,70.10
2019-05-19T01:07:11.883Z,70.10
2019-05-19T01:09:15.162Z,70.00
2019-05-19T01:11:18.425Z,70.00
2019-05-19T01:13:21.675Z,70.20
2019-05-19T01:15:24.944Z,70.60
2019-05-19T01:17:28.197Z,70.60
2019-05-19T01:19:31.456Z,70.50
2019-05-19T01:21:34.725Z,70.80
2019-05-19T01:23:38.010Z,70.90
2019-05-19T01:25:41.264Z,70.80
2019-05-19T01:27:44.593Z,70.60
2019-05-19T01:29:47.835Z,70.70
2019-05-19T01:31:51.102Z,71.00
2019-05-19T01:33:54.365Z,71.20
2019-05-19T01:35:57.597Z,71.20
2019-05-19T01:38:00.937Z,71.30
2019-05-19T01:40:07.175Z,71.20
2019-05-19T01:42:10.423Z,71.20
2019-05-19T01:44:13.685Z,71.30
2019-05-19T01:46:16.945Z,71.40
2019-05-19T01:48:20.211Z,71.40
2019-05-19T01:50:23.449Z,71.30
2019-05-19T01:52:26.800Z,71.50
2019-05-19T01:54:30.104Z,71.30
2019-05-19T01:56:33.334Z,71.40
2019-05-19T01:58:36.622Z,71.40
2019-05-19T02:00:39.903Z,71.50
2019-05-19T02:02:43.140Z,71.70
2019-05-19T02:04:46.401Z,71.80
2019-05-19T02:06:49.715Z,71.80
2019-05-19T02:08:52.977Z,72.00
2019-05-19T02:10:56.221Z,71.90
2019-05-19T02:12:59.465Z,71.70
2019-05-19T02:15:03.590Z,71.70
2019-05-19T02:17:06.820Z,71.60
2019-05-19T02:19:10.093Z,71.80
2019-05-19T02:21:13.346Z,71.90
2019-05-19T02:23:16.642Z,71.90
2019-05-19T02:25:19.897Z,72.00
2019-05-19T02:27:23.213Z,72.10
2019-05-19T02:29:26.504Z,72.00
2019-05-19T02:31:30.225Z,72.00
2019-05-19T02:33:35.817Z,72.00
2019-05-19T02:35:38.445Z,72.00
2019-05-19T02:37:41.710Z,71.90
2019-05-19T02:39:45.005Z,71.80
2019-05-19T02:41:48.806Z,71.70
2019-05-19T02:43:52.186Z,71.70
2019-05-19T02:45:58.910Z,71.70
2019-05-19T02:48:02.423Z,71.90
2019-05-19T02:50:07.614Z,71.80
2019-05-19T02:52:10.875Z,71.90
2019-05-19T02:54:15.157Z,71.90
2019-05-19T02:56:18.482Z,71.80
2019-05-19T02:58:21.720Z,71.60
2019-05-19T03:00:39.451Z,71.70
2019-05-19T03:02:43.057Z,71.80
2019-05-19T03:04:46.390Z,71.80
2019-05-19T03:06:49.636Z,71.80
2019-05-19T03:08:52.885Z,71.90
2019-05-19T03:10:56.208Z,71.90
2019-05-19T03:12:59.457Z,71.90
2019-05-19T03:15:02.759Z,71.80
2019-05-19T03:17:06.024Z,71.80
2019-05-19T03:19:09.251Z,71.90
2019-05-19T03:21:12.533Z,71.80
2019-05-19T03:23:15.779Z,71.80
2019-05-19T03:25:19.132Z,72.10
2019-05-19T03:27:22.434Z,72.10
2019-05-19T03:29:27.328Z,72.30
2019-05-19T03:31:35.223Z,72.40
2019-05-19T03:33:40.109Z,72.30
2019-05-19T03:35:43.351Z,72.00
2019-05-19T03:37:46.593Z,72.30
2019-05-19T03:39:49.910Z,72.40
2019-05-19T03:41:53.211Z,72.30
2019-05-19T03:43:56.534Z,72.20
2019-05-19T03:45:59.836Z,72.20
2019-05-19T03:48:03.174Z,72.20
2019-05-19T03:50:06.786Z,72.30
2019-05-19T03:52:10.106Z,72.40
2019-05-19T03:54:13.352Z,72.80
2019-05-19T03:56:16.600Z,72.70
2019-05-19T03:58:19.893Z,72.60
2019-05-19T04:00:23.396Z,72.70
2019-05-19T04:02:26.637Z,72.70
2019-05-19T04:04:29.981Z,72.70
2019-05-19T04:06:33.242Z,72.80
2019-05-19T04:08:36.510Z,72.80
2019-05-19T04:10:39.755Z,72.80
2019-05-19T04:12:42.994Z,73.70
2019-05-19T04:14:46.252Z,73.00
2019-05-19T04:16:51.235Z,73.00
2019-05-19T04:18:54.488Z,73.00
2019-05-19T04:20:57.741Z,73.00
2019-05-19T04:23:01.028Z,73.10
2019-05-19T04:25:04.853Z,73.10
2019-05-19T04:27:08.093Z,73.00
2019-05-19T04:29:11.354Z,73.00
2019-05-19T04:31:14.594Z,73.00
2019-05-19T04:33:17.848Z,73.00
2019-05-19T04:35:21.095Z,72.80
2019-05-19T04:37:24.336Z,72.80
2019-05-19T04:39:27.592Z,72.80
2019-05-19T04:41:30.833Z,72.80
2019-05-19T04:43:34.077Z,72.90
2019-05-19T04:45:37.360Z,72.80
2019-05-19T04:47:40.660Z,72.90
2019-05-19T04:49:43.911Z,72.90
2019-05-19T04:51:47.163Z,73.00
2019-05-19T04:53:50.385Z,73.00
2019-05-19T04:55:53.651Z,73.20
2019-05-19T04:57:56.892Z,73.10
2019-05-19T05:00:00.196Z,73.10
2019-05-19T05:02:03.504Z,72.40
2019-05-19T05:04:06.802Z,73.10
2019-05-19T05:06:10.074Z,73.10
2019-05-19T05:08:28.806Z,73.00
2019-05-19T05:10:18.404Z,73.10
2019-05-19T05:12:21.667Z,73.10
2019-05-19T05:14:24.950Z,73.00
2019-05-19T05:16:28.196Z,73.10
2019-05-19T05:18:31.445Z,73.20
2019-05-19T05:20:34.730Z,73.30
2019-05-19T05:22:38.042Z,73.40
2019-05-19T05:24:41.337Z,73.30
2019-05-19T05:26:44.609Z,73.40
2019-05-19T05:28:47.850Z,73.60
2019-05-19T05:30:51.218Z,73.90
2019-05-19T05:32:54.524Z,74.80
2019-05-19T05:34:57.803Z,74.10
2019-05-19T05:37:01.033Z,74.20
2019-05-19T05:39:05.942Z,74.40
2019-05-19T05:41:09.189Z,74.70
2019-05-19T05:43:12.420Z,74.80
2019-05-19T05:45:15.709Z,75.00
2019-05-19T05:47:18.952Z,75.10
2019-05-19T05:49:22.182Z,75.20
2019-05-19T05:51:25.445Z,75.40
2019-05-19T05:53:28.823Z,75.50
2019-05-19T05:55:32.111Z,75.30
2019-05-19T05:57:35.419Z,75.30
2019-05-19T05:59:38.675Z,76.20
2019-05-19T06:01:41.963Z,75.40
2019-05-19T06:03:45.265Z,76.50
2019-05-19T06:05:48.523Z,75.40
2019-05-19T06:07:51.781Z,75.40
2019-05-19T06:09:55.001Z,75.20
2019-05-19T06:11:58.271Z,75.40
2019-05-19T06:14:01.594Z,75.50
2019-05-19T06:16:04.882Z,75.30
2019-05-19T06:18:08.237Z,75.00
2019-05-19T06:20:11.481Z,74.70
2019-05-19T06:22:14.753Z,74.60
2019-05-19T06:24:17.983Z,74.70
2019-05-19T06:26:21.250Z,74.70
2019-05-19T06:28:24.498Z,74.20
2019-05-19T06:30:27.737Z,74.00
2019-05-19T06:32:32.715Z,73.80
2019-05-19T06:34:35.982Z,73.70
2019-05-19T06:36:39.234Z,73.90
2019-05-19T06:38:42.511Z,73.80
2019-05-19T06:40:45.827Z,73.90
2019-05-19T06:42:49.157Z,74.00
2019-05-19T06:44:52.384Z,74.10
2019-05-19T06:46:55.684Z,74.10
2019-05-19T06:48:58.931Z,74.40
2019-05-19T06:51:02.173Z,74.40
2019-05-19T06:53:13.950Z,74.40
2019-05-19T06:55:10.498Z,74.20
2019-05-19T06:57:13.767Z,73.90
2019-05-19T06:59:17.028Z,73.90
2019-05-19T07:01:20.339Z,73.80
2019-05-19T07:03:23.617Z,74.00
2019-05-19T07:05:26.858Z,74.00
2019-05-19T07:07:30.138Z,73.80
2019-05-19T07:09:33.387Z,73.80
2019-05-19T07:11:36.818Z,73.80
2019-05-19T07:13:40.132Z,74.00
2019-05-19T07:15:43.392Z,74.00
2019-05-19T07:17:46.725Z,73.70
2019-05-19T07:19:49.998Z,73.70
2019-05-19T07:21:53.243Z,73.40
2019-05-19T07:23:56.510Z,73.50
2019-05-19T07:25:59.777Z,73.50
2019-05-19T07:28:03.102Z,73.40
2019-05-19T07:30:07.445Z,74.20
2019-05-19T07:32:10.718Z,73.80
2019-05-19T07:34:13.986Z,73.70
2019-05-19T07:36:17.236Z,73.70
2019-05-19T07:38:20.493Z,74.20
2019-05-19T07:40:23.790Z,74.00
2019-05-19T07:42:27.096Z,73.70
2019-05-19T07:44:30.461Z,74.00
2019-05-19T07:46:33.707Z,73.80
2019-05-19T07:48:36.986Z,73.30
2019-05-19T07:50:40.241Z,73.00
2019-05-19T07:52:43.530Z,73.10
2019-05-19T07:54:46.879Z,73.20
2019-05-19T07:56:50.132Z,73.00
2019-05-19T07:58:53.402Z,73.10
2019-05-19T08:00:56.686Z,72.50
2019-05-19T08:02:59.917Z,71.80
2019-05-19T08:05:03.430Z,71.50
2019-05-19T08:07:06.702Z,71.40
2019-05-19T08:09:09.992Z,71.00
2019-05-19T08:11:13.303Z,70.50
2019-05-19T08:13:16.569Z,70.50
2019-05-19T08:15:19.840Z,70.60
2019-05-19T08:17:25.879Z,70.60
2019-05-19T08:19:28.055Z,70.50
2019-05-19T08:21:31.336Z,70.50
2019-05-19T08:23:34.597Z,70.30
2019-05-19T08:25:37.929Z,70.40
2019-05-19T08:27:41.194Z,70.10
2019-05-19T08:29:44.457Z,70.10
2019-05-19T08:31:47.911Z,70.00
2019-05-19T08:33:51.482Z,69.50
2019-05-19T08:35:54.857Z,69.40
2019-05-19T08:37:58.186Z,69.40
2019-05-19T08:40:01.506Z,69.40
2019-05-19T08:42:04.792Z,69.50
2019-05-19T08:44:08.132Z,69.50
2019-05-19T08:46:11.441Z,69.90
2019-05-19T08:48:14.762Z,69.40
2019-05-19T08:50:18.048Z,69.70
2019-05-19T08:52:21.308Z,69.80
2019-05-19T08:54:24.627Z,69.60
2019-05-19T08:56:28.023Z,69.30
2019-05-19T08:58:31.278Z,69.10
2019-05-19T09:00:38.303Z,69.30
2019-05-19T09:02:39.664Z,69.50
2019-05-19T09:04:42.930Z,69.30
2019-05-19T09:06:46.222Z,69.40
2019-05-19T09:08:49.509Z,69.20
2019-05-19T09:10:52.953Z,68.80
2019-05-19T09:12:56.207Z,69.10
2019-05-19T09:14:59.449Z,68.90
2019-05-19T09:17:02.743Z,68.90
2019-05-19T09:19:06.109Z,68.80
2019-05-19T09:21:09.382Z,69.50
2019-05-19T09:23:12.686Z,69.20
2019-05-19T09:25:15.965Z,68.70
2019-05-19T09:27:19.281Z,68.40
2019-05-19T09:29:22.639Z,68.50
2019-05-19T09:31:25.922Z,70.10
2019-05-19T09:33:29.277Z,69.70
2019-05-19T09:35:32.546Z,70.10
2019-05-19T09:37:35.858Z,69.70
2019-05-19T09:39:39.163Z,69.70
2019-05-19T09:41:42.433Z,68.80
2019-05-19T09:43:45.781Z,68.60
2019-05-19T09:45:49.057Z,68.70
2019-05-19T09:47:52.463Z,69.10
2019-05-19T09:49:55.747Z,69.20
2019-05-19T09:51:59.139Z,68.80
2019-05-19T09:54:02.459Z,68.70
2019-05-19T09:56:05.720Z,68.90
2019-05-19T09:58:08.985Z,68.70
2019-05-19T10:00:12.932Z,67.80
2019-05-19T10:02:16.200Z,67.70
2019-05-19T10:04:19.531Z,66.60
2019-05-19T10:06:22.803Z,66.30
2019-05-19T10:08:28.134Z,66.60
2019-05-19T10:10:37.403Z,66.30
2019-05-19T10:12:40.654Z,66.40
2019-05-19T10:14:43.926Z,66.00
2019-05-19T10:16:47.252Z,65.90
2019-05-19T10:18:50.589Z,65.90
2019-05-19T10:20:53.934Z,65.50
2019-05-19T10:22:57.253Z,64.70
2019-05-19T10:25:20.425Z,64.50
2019-05-19T10:27:05.532Z,64.00
2019-05-19T10:29:08.822Z,64.80
2019-05-19T10:31:12.091Z,64.20
2019-05-19T10:33:15.329Z,64.00
2019-05-19T10:35:18.628Z,63.70
2019-05-19T10:37:21.972Z,64.00
2019-05-19T10:39:25.212Z,63.20
2019-05-19T10:41:28.552Z,63.20
2019-05-19T10:43:31.871Z,63.40
2019-05-19T10:45:35.344Z,63.70
2019-05-19T10:47:38.771Z,63.10
2019-05-19T10:49:43.116Z,62.30
2019-05-19T10:51:46.775Z,62.10
2019-05-19T10:53:50.062Z,61.50
2019-05-19T10:55:53.368Z,62.10
2019-05-19T10:57:56.622Z,60.90
2019-05-19T10:59:59.901Z,61.70
2019-05-19T11:02:03.214Z,61.40
2019-05-19T11:04:06.494Z,60.70
2019-05-19T11:06:09.838Z,60.10
2019-05-19T11:08:13.188Z,60.00
2019-05-19T11:10:16.419Z,60.40
2019-05-19T11:12:19.691Z,61.40
2019-05-19T11:14:22.954Z,60.90
2019-05-19T11:16:26.303Z,59.30
2019-05-19T11:18:29.546Z,59.20
2019-05-19T11:20:32.849Z,59.20
2019-05-19T11:22:36.140Z,58.70
2019-05-19T11:24:39.420Z,59.40
2019-05-19T11:26:42.745Z,58.80
2019-05-19T11:28:45.998Z,59.00
2019-05-19T11:30:49.259Z,59.10
2019-05-19T11:32:52.509Z,59.50
2019-05-19T11:34:55.761Z,59.10
2019-05-19T11:36:59.004Z,58.60
2019-05-19T11:39:02.301Z,58.30
2019-05-19T11:41:05.569Z,58.50
2019-05-19T11:43:08.904Z,58.50
2019-05-19T11:45:12.165Z,58.30
2019-05-19T11:47:15.467Z,57.90
2019-05-19T11:49:18.694Z,57.80
2019-05-19T11:51:21.958Z,59.00
2019-05-19T11:53:25.221Z,59.00
2019-05-19T11:55:28.496Z,59.40
2019-05-19T11:57:31.791Z,59.00
2019-05-19T11:59:35.093Z,58.00
2019-05-19T12:01:38.339Z,57.70
2019-05-19T12:03:41.604Z,56.70
2019-05-19T12:05:44.877Z,56.50
2019-05-19T12:07:48.133Z,55.80
2019-05-19T12:09:51.389Z,55.80
2019-05-19T12:11:54.630Z,55.40
2019-05-19T12:13:57.941Z,55.80
2019-05-19T12:16:01.264Z,55.50
2019-05-19T12:18:04.519Z,55.80
2019-05-19T12:20:07.768Z,55.50
2019-05-19T12:22:11.041Z,55.30
2019-05-19T12:24:14.304Z,55.00
2019-05-19T12:26:23.186Z,55.70
2019-05-19T12:28:22.572Z,55.10
2019-05-19T12:30:26.167Z,55.40
2019-05-19T12:32:29.445Z,56.00
2019-05-19T12:34:32.749Z,56.40
2019-05-19T12:36:36.262Z,56.10
2019-05-19T12:38:39.566Z,56.80
2019-05-19T12:40:42.789Z,57.30
2019-05-19T12:42:46.061Z,57.80
2019-05-19T12:44:51.771Z,59.10
2019-05-19T12:46:55.165Z,60.50
2019-05-19T12:48:58.449Z,60.90
2019-05-19T12:51:01.703Z,61.80
2019-05-19T12:53:04.942Z,62.20
2019-05-19T12:55:08.316Z,61.00
2019-05-19T12:57:11.695Z,61.10
2019-05-19T12:59:14.969Z,60.90
2019-05-19T13:01:18.211Z,58.70
2019-05-19T13:03:21.462Z,58.50
2019-05-19T13:05:24.777Z,57.30
2019-05-19T13:07:28.296Z,57.20
2019-05-19T13:09:32.112Z,57.00
2019-05-19T13:11:35.541Z,57.60
2019-05-19T13:13:38.932Z,56.40
2019-05-19T13:15:42.243Z,55.20
2019-05-19T13:17:45.522Z,55.30
2019-05-19T13:19:48.834Z,55.30
2019-05-19T13:21:52.091Z,55.90
2019-05-19T13:23:55.943Z,55.70
2019-05-19T13:25:59.416Z,55.20
2019-05-19T13:28:02.666Z,54.90
2019-05-19T13:30:09.364Z,56.30
2019-05-19T13:32:12.660Z,56.50
2019-05-19T13:34:15.987Z,56.60
2019-05-19T13:36:19.271Z,56.70
2019-05-19T13:38:22.585Z,56.10
2019-05-19T13:40:25.873Z,56.50
2019-05-19T13:42:29.119Z,57.40
2019-05-19T13:44:32.397Z,57.90
2019-05-19T13:46:35.714Z,57.70
2019-05-19T13:48:39.022Z,56.70
2019-05-19T13:50:42.365Z,56.70
2019-05-19T13:52:45.611Z,56.70
2019-05-19T13:54:48.860Z,56.40
2019-05-19T13:56:52.153Z,55.40
2019-05-19T13:58:55.391Z,54.10
2019-05-19T14:00:58.650Z,54.70
2019-05-19T14:03:01.964Z,53.70
2019-05-19T14:05:05.671Z,52.50
2019-05-19T14:07:08.992Z,51.70
2019-05-19T14:09:15.181Z,50.50
2019-05-19T14:11:17.310Z,50.80
2019-05-19T14:13:20.589Z,50.20
2019-05-19T14:15:23.841Z,50.50
2019-05-19T14:17:27.127Z,50.10
2019-05-19T14:19:30.407Z,49.30
2019-05-19T14:21:33.768Z,48.80
2019-05-19T14:23:37.121Z,48.70
2019-05-19T14:25:40.461Z,48.00
2019-05-19T14:27:43.767Z,47.20
2019-05-19T14:29:47.041Z,46.70
2019-05-19T14:31:50.373Z,46.30
2019-05-19T14:33:53.757Z,45.60
2019-05-19T14:35:57.169Z,45.00
2019-05-19T14:38:00.445Z,44.90
2019-05-19T14:40:04.970Z,44.40
2019-05-19T14:42:09.870Z,45.70
2019-05-19T14:44:13.179Z,45.70
2019-05-19T14:46:16.502Z,44.70
2019-05-19T14:48:19.782Z,44.30
2019-05-19T14:50:23.113Z,44.40
2019-05-19T14:52:26.464Z,45.40
2019-05-19T14:54:29.827Z,46.00
2019-05-19T14:56:33.803Z,46.10
2019-05-19T14:58:37.209Z,45.90
2019-05-19T15:00:40.457Z,46.60
2019-05-19T15:02:43.705Z,45.90
2019-05-19T15:04:46.977Z,45.60
2019-05-19T15:06:50.226Z,45.80
2019-05-19T15:08:53.532Z,46.30
2019-05-19T15:10:56.914Z,46.30
2019-05-19T15:13:00.345Z,46.50
2019-05-19T15:15:05.282Z,47.30
2019-05-19T15:17:08.563Z,47.80
2019-05-19T15:19:11.908Z,48.30
2019-05-19T15:21:15.145Z,48.10
2019-05-19T15:23:18.466Z,48.20
2019-05-19T15:25:21.795Z,48.50
2019-05-19T15:27:25.124Z,49.50
2019-05-19T15:29:28.387Z,50.00
2019-05-19T15:31:31.675Z,50.10
2019-05-19T15:33:38.395Z,50.60
2019-05-19T15:35:40.023Z,50.50
2019-05-19T15:37:43.342Z,50.60
2019-05-19T15:39:46.630Z,50.90
2019-05-19T15:41:49.894Z,51.30
2019-05-19T15:43:53.150Z,51.70
2019-05-19T15:45:56.520Z,51.90
2019-05-19T15:47:59.776Z,52.10
2019-05-19T15:50:04.001Z,52.40
2019-05-19T15:52:07.229Z,52.70
2019-05-19T15:54:10.591Z,52.40
2019-05-19T15:56:13.904Z,52.30
2019-05-19T15:58:17.339Z,52.80
2019-05-19T16:00:22.056Z,52.80
2019-05-19T16:02:25.291Z,52.90
2019-05-19T16:04:28.550Z,53.00
2019-05-19T16:06:31.823Z,53.00
2019-05-19T16:08:35.086Z,53.20
2019-05-19T16:10:38.445Z,53.10
2019-05-19T16:12:41.784Z,53.30
2019-05-19T16:14:45.095Z,53.40
2019-05-19T16:16:48.351Z,53.50
2019-05-19T16:18:53.361Z,53.60
2019-05-19T16:20:56.800Z,54.10
2019-05-19T16:23:00.064Z,53.80
2019-05-19T16:25:04.745Z,53.80
2019-05-19T16:27:08.030Z,53.80
2019-05-19T16:29:11.349Z,53.80
2019-05-19T16:31:14.656Z,54.50
2019-05-19T16:33:18.029Z,54.80
2019-05-19T16:35:21.351Z,55.00
2019-05-19T16:37:24.730Z,55.20
2019-05-19T16:39:28.034Z,55.50
2019-05-19T16:41:31.338Z,55.60
2019-05-19T16:43:34.612Z,55.70
2019-05-19T16:45:37.977Z,55.90
2019-05-19T16:47:41.279Z,55.50
2019-05-19T16:49:44.622Z,55.30
2019-05-19T16:51:47.911Z,55.60
2019-05-19T16:53:52.848Z,55.30
2019-05-19T16:55:56.137Z,55.50
2019-05-19T16:57:59.406Z,55.60
2019-05-19T17:00:02.653Z,55.70
2019-05-19T17:02:05.927Z,55.80
2019-05-19T17:04:09.194Z,55.70
2019-05-19T17:06:12.454Z,55.90
2019-05-19T17:08:15.743Z,55.90
2019-05-19T17:10:19.127Z,55.90
2019-05-19T17:12:22.431Z,56.40
2019-05-19T17:14:25.742Z,56.10
2019-05-19T17:16:29.457Z,56.40
2019-05-19T17:18:32.733Z,56.20
2019-05-19T17:20:36.061Z,56.40
2019-05-19T17:22:39.311Z,56.30
2019-05-19T17:24:42.702Z,56.80
2019-05-19T17:26:46.052Z,56.70
2019-05-19T17:29:00.099Z,56.60
2019-05-19T17:30:54.298Z,56.70
2019-05-19T17:32:57.607Z,56.40
2019-05-19T17:35:00.862Z,56.40
2019-05-19T17:37:04.147Z,56.50
2019-05-19T17:39:07.425Z,56.50
2019-05-19T17:41:10.708Z,56.70
2019-05-19T17:43:14.045Z,56.00
2019-05-19T17:45:17.378Z,56.40
2019-05-19T17:47:20.682Z,56.10
2019-05-19T17:49:24.032Z,56.10
2019-05-19T17:51:27.312Z,56.60
2019-05-19T17:53:30.614Z,55.70
2019-05-19T17:55:34.384Z,55.20
2019-05-19T17:57:37.998Z,55.20
2019-05-19T17:59:42.904Z,56.00
2019-05-19T18:01:46.172Z,56.10
2019-05-19T18:03:49.459Z,56.30
2019-05-19T18:05:52.709Z,56.90
2019-05-19T18:07:56.011Z,56.80
2019-05-19T18:09:59.289Z,56.80
2019-05-19T18:12:02.519Z,56.20
2019-05-19T18:14:05.784Z,56.40
2019-05-19T18:16:09.095Z,56.90
2019-05-19T18:18:12.420Z,56.90
2019-05-19T18:20:23.364Z,56.40
2019-05-19T18:22:20.774Z,56.40
2019-05-19T18:24:24.124Z,56.90
2019-05-19T18:26:27.405Z,56.80
2019-05-19T18:28:30.690Z,57.00
2019-05-19T18:30:34.132Z,57.10
2019-05-19T18:32:37.397Z,56.80
2019-05-19T18:34:40.739Z,56.50
2019-05-19T18:36:44.004Z,56.80
2019-05-19T18:38:47.239Z,57.00
2019-05-19T18:40:50.539Z,57.20
2019-05-19T18:42:53.891Z,57.70
2019-05-19T18:44:57.227Z,57.80
2019-05-19T18:47:00.470Z,57.20
2019-05-19T18:49:03.734Z,56.90
2019-05-19T18:51:07.043Z,56.90
2019-05-19T18:53:10.369Z,57.50
2019-05-19T18:55:13.680Z,57.50
2019-05-19T18:57:17.003Z,57.70
2019-05-19T18:59:20.402Z,57.80
2019-05-19T19:01:23.701Z,57.70
2019-05-19T19:03:26.952Z,57.80
2019-05-19T19:05:30.264Z,57.60
2019-05-19T19:07:50.310Z,57.60
2019-05-19T19:09:53.631Z,57.40
2019-05-19T19:11:56.909Z,57.50
2019-05-19T19:14:00.195Z,57.70
2019-05-19T19:16:03.606Z,57.80
2019-05-19T19:18:06.882Z,57.90
2019-05-19T19:20:10.221Z,58.10
2019-05-19T19:22:13.580Z,58.20
2019-05-19T19:24:16.907Z,58.50
2019-05-19T19:26:20.319Z,58.70
2019-05-19T19:28:23.592Z,58.80
2019-05-19T19:30:26.872Z,58.80
2019-05-19T19:32:30.236Z,59.00
2019-05-19T19:34:33.584Z,59.20
2019-05-19T19:36:36.901Z,59.30
2019-05-19T19:38:40.215Z,59.50
2019-05-19T19:40:43.481Z,59.40
2019-05-19T19:42:46.777Z,59.50
2019-05-19T19:44:50.049Z,59.60
2019-05-19T19:46:53.931Z,59.80
2019-05-19T19:48:57.391Z,59.90
2019-05-19T19:51:00.647Z,59.90
2019-05-19T19:53:03.945Z,60.00
2019-05-19T19:55:07.295Z,60.10
2019-05-19T19:57:10.607Z,60.10
2019-05-19T19:59:13.855Z,60.40
2019-05-19T20:01:17.564Z,60.80
2019-05-19T20:03:20.880Z,60.80
2019-05-19T20:05:24.140Z,61.00
2019-05-19T20:07:27.453Z,61.20
2019-05-19T20:09:30.739Z,61.50
2019-05-19T20:11:34.059Z,61.70
2019-05-19T20:13:37.354Z,62.00
2019-05-19T20:15:40.631Z,62.10
2019-05-19T20:17:43.938Z,62.60
2019-05-19T20:19:47.311Z,62.40
2019-05-19T20:21:50.588Z,62.60
2019-05-19T20:23:53.961Z,62.70
2019-05-19T20:25:57.235Z,62.70
2019-05-19T20:28:00.556Z,62.80
2019-05-19T20:30:05.447Z,63.10
2019-05-19T20:32:08.814Z,63.10
2019-05-19T20:34:13.348Z,63.30
2019-05-19T20:36:16.570Z,63.60
2019-05-19T20:38:21.502Z,64.00
2019-05-19T20:40:24.804Z,63.90
2019-05-19T20:42:28.072Z,64.10
2019-05-19T20:44:31.393Z,64.30
2019-05-19T20:46:34.719Z,64.50
2019-05-19T20:48:37.996Z,64.70
2019-05-19T20:50:41.364Z,64.70
2019-05-19T20:52:44.652Z,64.70
2019-05-19T20:54:47.998Z,65.00
2019-05-19T20:56:51.251Z,64.80
2019-05-19T20:58:54.509Z,64.70
2019-05-19T21:00:57.793Z,64.70
2019-05-19T21:03:01.058Z,64.80
2019-05-19T21:05:04.871Z,65.00
2019-05-19T21:07:08.136Z,65.30
2019-05-19T21:09:11.478Z,65.20
2019-05-19T21:11:15.297Z,65.10
2019-05-19T21:13:18.536Z,65.00
2019-05-19T21:15:21.812Z,65.00
2019-05-19T21:17:25.063Z,64.80
2019-05-19T21:19:28.315Z,64.80
2019-05-19T21:21:31.586Z,65.00
2019-05-19T21:23:34.834Z,65.00
2019-05-19T21:25:38.108Z,64.90
2019-05-19T21:27:41.375Z,64.80
2019-05-19T21:29:44.663Z,64.90
2019-05-19T21:31:48.241Z,65.00
2019-05-19T21:33:51.545Z,65.20
2019-05-19T21:35:54.924Z,65.40
2019-05-19T21:37:58.177Z,65.50
2019-05-19T21:40:01.438Z,65.50
2019-05-19T21:42:04.717Z,65.40
2019-05-19T21:44:07.994Z,65.40
2019-05-19T21:46:11.326Z,65.50
2019-05-19T21:48:14.593Z,65.60
2019-05-19T21:50:17.844Z,65.80
2019-05-19T21:52:21.706Z,65.90
2019-05-19T21:54:24.949Z,65.80
2019-05-19T21:56:28.206Z,66.10
2019-05-19T21:58:31.492Z,66.40
2019-05-19T22:00:35.681Z,66.40
2019-05-19T22:02:39.072Z,66.50
2019-05-19T22:04:42.398Z,66.80
2019-05-19T22:06:56.354Z,66.90
2019-05-19T22:09:00.165Z,66.90
2019-05-19T22:11:04.654Z,67.80
2019-05-19T22:13:08.165Z,67.30
2019-05-19T22:15:11.823Z,67.20
2019-05-19T22:17:15.129Z,67.40
2019-05-19T22:19:18.410Z,67.60
2019-05-19T22:21:21.639Z,68.00
2019-05-19T22:23:24.908Z,68.10
2019-05-19T22:25:28.203Z,68.20
2019-05-19T22:27:31.525Z,68.20
2019-05-19T22:29:34.797Z,68.40
2019-05-19T22:31:38.085Z,68.70
2019-05-19T22:33:41.367Z,68.90
2019-05-19T22:35:44.610Z,68.80
2019-05-19T22:37:47.849Z,68.80
2019-05-19T22:39:51.263Z,68.80
2019-05-19T22:41:54.554Z,69.00
2019-05-19T22:43:57.850Z,69.00
2019-05-19T22:46:01.093Z,69.00
2019-05-19T22:48:04.382Z,69.10
2019-05-19T22:50:07.989Z,69.20
2019-05-19T22:52:11.243Z,69.20
2019-05-19T22:54:14.497Z,69.40
2019-05-19T22:56:17.740Z,69.20
2019-05-19T22:58:21.033Z,69.40
2019-05-19T23:00:25.701Z,69.50
2019-05-19T23:02:29.016Z,69.60
2019-05-19T23:04:32.282Z,69.70
2019-05-19T23:06:35.534Z,69.70
2019-05-19T23:08:38.876Z,69.60
2019-05-19T23:10:42.313Z,69.50
2019-05-19T23:12:45.552Z,69.50
2019-05-19T23:14:49.617Z,69.40
2019-05-19T23:16:52.872Z,69.70
2019-05-19T23:18:56.192Z,69.70
2019-05-19T23:20:59.483Z,69.70
2019-05-19T23:23:02.724Z,69.80
2019-05-19T23:25:06.481Z,69.90
2019-05-19T23:27:09.768Z,69.90
2019-05-19T23:29:13.081Z,69.90
2019-05-19T23:31:16.379Z,69.90
2019-05-19T23:33:19.709Z,69.90
2019-05-19T23:35:22.970Z,69.90
2019-05-19T23:37:26.216Z,69.80
2019-05-19T23:39:29.509Z,69.90
2019-05-19T23:41:32.784Z,69.90
2019-05-19T23:43:36.002Z,69.90
2019-05-19T23:45:39.266Z,70.00
2019-05-19T23:47:42.518Z,70.30
2019-05-19T23:49:45.776Z,70.40
2019-05-19T23:51:49.021Z,70.40
2019-05-19T23:53:52.252Z,70.40
2019-05-19T23:55:55.523Z,70.40
2019-05-19T23:57:58.775Z,70.40
